sensor_id;sensor_type;location;lat;lon;timestamp;P1;durP1;ratioP1;P2;durP2;ratioP2
21301;SDS011;10810;48.270;9.996;2023-02-28T00:01:19;3.73;;;1.93;;
21301;SDS011;10810;48.270;9.996;2023-02-28T00:03:46;4.60;;;2.13;;
21301;SDS011;10810;48.270;9.996;2023-02-28T00:06:13;4.03;;;2.10;;
21301;SDS011;10810;48.270;9.996;2023-02-28T00:08:41;3.50;;;1.90;;
21301;SDS011;10810;48.270;9.996;2023-02-28T00:11:08;3.73;;;2.13;;
21301;SDS011;10810;48.270;9.996;2023-02-28T00:13:37;5.90;;;2.23;;
21301;SDS011;10810;48.270;9.996;2023-02-28T00:16:08;4.30;;;2.10;;
21301;SDS011;10810;48.270;9.996;2023-02-28T00:18:38;4.00;;;1.60;;
21301;SDS011;10810;48.270;9.996;2023-02-28T00:21:05;3.50;;;1.47;;
21301;SDS011;10810;48.270;9.996;2023-02-28T00:23:34;3.00;;;1.53;;
21301;SDS011;10810;48.270;9.996;2023-02-28T00:26:02;3.93;;;2.13;;
21301;SDS011;10810;48.270;9.996;2023-02-28T00:28:30;9.10;;;2.50;;
21301;SDS011;10810;48.270;9.996;2023-02-28T00:30:57;3.03;;;1.97;;
21301;SDS011;10810;48.270;9.996;2023-02-28T00:33:29;3.77;;;1.90;;
21301;SDS011;10810;48.270;9.996;2023-02-28T00:36:03;5.43;;;2.00;;
21301;SDS011;10810;48.270;9.996;2023-02-28T00:38:31;4.37;;;1.90;;
21301;SDS011;10810;48.270;9.996;2023-02-28T00:40:58;2.60;;;1.63;;
21301;SDS011;10810;48.270;9.996;2023-02-28T00:43:29;3.33;;;1.80;;
21301;SDS011;10810;48.270;9.996;2023-02-28T00:45:57;2.00;;;1.40;;
21301;SDS011;10810;48.270;9.996;2023-02-28T00:48:24;3.33;;;1.40;;
21301;SDS011;10810;48.270;9.996;2023-02-28T00:50:53;4.00;;;1.83;;
21301;SDS011;10810;48.270;9.996;2023-02-28T00:53:20;2.83;;;1.97;;
21301;SDS011;10810;48.270;9.996;2023-02-28T00:55:48;3.87;;;1.50;;
21301;SDS011;10810;48.270;9.996;2023-02-28T00:58:15;1.90;;;1.40;;
21301;SDS011;10810;48.270;9.996;2023-02-28T01:00:43;3.17;;;1.70;;
21301;SDS011;10810;48.270;9.996;2023-02-28T01:03:13;3.60;;;1.40;;
21301;SDS011;10810;48.270;9.996;2023-02-28T01:05:43;6.27;;;1.80;;
21301;SDS011;10810;48.270;9.996;2023-02-28T01:08:11;1.53;;;1.30;;
21301;SDS011;10810;48.270;9.996;2023-02-28T01:10:43;3.27;;;1.50;;
21301;SDS011;10810;48.270;9.996;2023-02-28T01:13:10;2.37;;;1.30;;
21301;SDS011;10810;48.270;9.996;2023-02-28T01:15:38;3.13;;;1.60;;
21301;SDS011;10810;48.270;9.996;2023-02-28T01:18:08;2.40;;;1.40;;
21301;SDS011;10810;48.270;9.996;2023-02-28T01:20:37;3.13;;;1.47;;
21301;SDS011;10810;48.270;9.996;2023-02-28T01:23:08;4.77;;;1.60;;
21301;SDS011;10810;48.270;9.996;2023-02-28T01:25:35;2.17;;;1.60;;
21301;SDS011;10810;48.270;9.996;2023-02-28T01:28:07;2.67;;;1.53;;
21301;SDS011;10810;48.270;9.996;2023-02-28T01:30:34;2.93;;;1.83;;
21301;SDS011;10810;48.270;9.996;2023-02-28T01:33:01;2.77;;;1.40;;
21301;SDS011;10810;48.270;9.996;2023-02-28T01:35:31;5.03;;;1.70;;
21301;SDS011;10810;48.270;9.996;2023-02-28T01:37:59;2.37;;;1.53;;
21301;SDS011;10810;48.270;9.996;2023-02-28T01:40:27;3.93;;;2.50;;
21301;SDS011;10810;48.270;9.996;2023-02-28T01:42:54;6.00;;;1.70;;
21301;SDS011;10810;48.270;9.996;2023-02-28T01:45:24;2.07;;;1.13;;
21301;SDS011;10810;48.270;9.996;2023-02-28T01:48:04;4.73;;;1.50;;
21301;SDS011;10810;48.270;9.996;2023-02-28T01:50:35;2.23;;;1.53;;
21301;SDS011;10810;48.270;9.996;2023-02-28T01:53:06;7.07;;;1.73;;
21301;SDS011;10810;48.270;9.996;2023-02-28T01:55:38;3.83;;;1.40;;
21301;SDS011;10810;48.270;9.996;2023-02-28T01:58:07;2.30;;;1.53;;
21301;SDS011;10810;48.270;9.996;2023-02-28T02:00:35;2.50;;;1.40;;
21301;SDS011;10810;48.270;9.996;2023-02-28T02:03:05;4.33;;;1.80;;
21301;SDS011;10810;48.270;9.996;2023-02-28T02:05:35;4.47;;;1.77;;
21301;SDS011;10810;48.270;9.996;2023-02-28T02:08:08;3.53;;;1.80;;
21301;SDS011;10810;48.270;9.996;2023-02-28T02:10:39;2.40;;;1.33;;
21301;SDS011;10810;48.270;9.996;2023-02-28T02:13:14;3.07;;;1.27;;
21301;SDS011;10810;48.270;9.996;2023-02-28T02:15:51;4.07;;;1.60;;
21301;SDS011;10810;48.270;9.996;2023-02-28T02:18:29;5.50;;;1.77;;
21301;SDS011;10810;48.270;9.996;2023-02-28T02:33:11;2.67;;;1.40;;
21301;SDS011;10810;48.270;9.996;2023-02-28T02:35:53;5.53;;;2.10;;
21301;SDS011;10810;48.270;9.996;2023-02-28T02:38:29;3.23;;;1.80;;
21301;SDS011;10810;48.270;9.996;2023-02-28T02:41:02;3.40;;;1.73;;
21301;SDS011;10810;48.270;9.996;2023-02-28T02:43:35;3.60;;;2.00;;
21301;SDS011;10810;48.270;9.996;2023-02-28T02:46:08;3.67;;;1.73;;
21301;SDS011;10810;48.270;9.996;2023-02-28T02:48:39;3.63;;;1.50;;
21301;SDS011;10810;48.270;9.996;2023-02-28T02:51:11;2.43;;;1.53;;
21301;SDS011;10810;48.270;9.996;2023-02-28T02:53:42;2.67;;;1.73;;
21301;SDS011;10810;48.270;9.996;2023-02-28T02:56:15;5.83;;;2.13;;
21301;SDS011;10810;48.270;9.996;2023-02-28T02:58:44;3.80;;;1.27;;
21301;SDS011;10810;48.270;9.996;2023-02-28T03:01:17;3.87;;;1.67;;
21301;SDS011;10810;48.270;9.996;2023-02-28T03:03:53;3.80;;;1.80;;
21301;SDS011;10810;48.270;9.996;2023-02-28T03:06:25;2.63;;;1.30;;
21301;SDS011;10810;48.270;9.996;2023-02-28T03:08:53;3.60;;;2.10;;
21301;SDS011;10810;48.270;9.996;2023-02-28T03:11:22;2.50;;;1.70;;
21301;SDS011;10810;48.270;9.996;2023-02-28T03:16:48;4.17;;;1.80;;
21301;SDS011;10810;48.270;9.996;2023-02-28T03:19:28;4.00;;;1.60;;
21301;SDS011;10810;48.270;9.996;2023-02-28T03:22:09;4.20;;;1.97;;
21301;SDS011;10810;48.270;9.996;2023-02-28T03:24:45;3.23;;;1.80;;
21301;SDS011;10810;48.270;9.996;2023-02-28T03:27:22;4.03;;;2.10;;
21301;SDS011;10810;48.270;9.996;2023-02-28T03:29:56;4.00;;;1.57;;
21301;SDS011;10810;48.270;9.996;2023-02-28T03:32:27;4.70;;;1.70;;
21301;SDS011;10810;48.270;9.996;2023-02-28T03:34:57;6.60;;;2.07;;
21301;SDS011;10810;48.270;9.996;2023-02-28T03:37:31;3.30;;;2.20;;
21301;SDS011;10810;48.270;9.996;2023-02-28T03:40:02;3.27;;;1.93;;
21301;SDS011;10810;48.270;9.996;2023-02-28T03:42:36;4.13;;;1.60;;
21301;SDS011;10810;48.270;9.996;2023-02-28T03:45:09;3.07;;;1.80;;
21301;SDS011;10810;48.270;9.996;2023-02-28T03:47:43;5.37;;;2.00;;
21301;SDS011;10810;48.270;9.996;2023-02-28T03:50:18;5.77;;;2.30;;
21301;SDS011;10810;48.270;9.996;2023-02-28T03:52:53;4.77;;;1.90;;
21301;SDS011;10810;48.270;9.996;2023-02-28T03:55:26;3.00;;;1.40;;
21301;SDS011;10810;48.270;9.996;2023-02-28T03:58:01;8.10;;;2.53;;
21301;SDS011;10810;48.270;9.996;2023-02-28T04:00:39;2.70;;;1.83;;
21301;SDS011;10810;48.270;9.996;2023-02-28T04:03:09;4.63;;;1.77;;
21301;SDS011;10810;48.270;9.996;2023-02-28T04:05:45;2.43;;;1.70;;
21301;SDS011;10810;48.270;9.996;2023-02-28T04:08:20;6.40;;;2.37;;
21301;SDS011;10810;48.270;9.996;2023-02-28T04:10:55;6.03;;;2.33;;
21301;SDS011;10810;48.270;9.996;2023-02-28T04:13:29;5.73;;;2.27;;
21301;SDS011;10810;48.270;9.996;2023-02-28T04:15:58;4.20;;;1.67;;
21301;SDS011;10810;48.270;9.996;2023-02-28T04:18:25;4.00;;;2.30;;
21301;SDS011;10810;48.270;9.996;2023-02-28T04:20:52;6.90;;;2.43;;
21301;SDS011;10810;48.270;9.996;2023-02-28T04:23:25;2.40;;;1.47;;
21301;SDS011;10810;48.270;9.996;2023-02-28T04:25:55;1.70;;;1.47;;
21301;SDS011;10810;48.270;9.996;2023-02-28T04:28:24;5.97;;;2.30;;
21301;SDS011;10810;48.270;9.996;2023-02-28T04:30:54;3.90;;;2.03;;
21301;SDS011;10810;48.270;9.996;2023-02-28T04:33:21;5.47;;;2.10;;
21301;SDS011;10810;48.270;9.996;2023-02-28T04:35:51;4.83;;;2.00;;
21301;SDS011;10810;48.270;9.996;2023-02-28T04:38:32;3.60;;;2.00;;
21301;SDS011;10810;48.270;9.996;2023-02-28T04:41:00;6.80;;;2.23;;
21301;SDS011;10810;48.270;9.996;2023-02-28T04:43:30;4.63;;;2.03;;
21301;SDS011;10810;48.270;9.996;2023-02-28T04:45:58;4.80;;;2.33;;
21301;SDS011;10810;48.270;9.996;2023-02-28T04:48:34;4.73;;;2.50;;
21301;SDS011;10810;48.270;9.996;2023-02-28T04:51:03;5.57;;;2.33;;
21301;SDS011;10810;48.270;9.996;2023-02-28T04:53:34;5.00;;;2.33;;
21301;SDS011;10810;48.270;9.996;2023-02-28T04:56:01;5.77;;;2.80;;
21301;SDS011;10810;48.270;9.996;2023-02-28T04:58:29;3.47;;;1.87;;
21301;SDS011;10810;48.270;9.996;2023-02-28T05:01:01;6.50;;;2.70;;
21301;SDS011;10810;48.270;9.996;2023-02-28T05:03:29;5.40;;;2.77;;
21301;SDS011;10810;48.270;9.996;2023-02-28T05:05:56;3.87;;;2.23;;
21301;SDS011;10810;48.270;9.996;2023-02-28T05:08:39;5.33;;;2.40;;
21301;SDS011;10810;48.270;9.996;2023-02-28T05:11:11;5.07;;;2.20;;
21301;SDS011;10810;48.270;9.996;2023-02-28T05:13:41;6.00;;;1.90;;
21301;SDS011;10810;48.270;9.996;2023-02-28T05:16:08;6.97;;;2.43;;
21301;SDS011;10810;48.270;9.996;2023-02-28T05:18:35;7.23;;;1.80;;
21301;SDS011;10810;48.270;9.996;2023-02-28T05:21:03;8.77;;;3.23;;
21301;SDS011;10810;48.270;9.996;2023-02-28T05:23:30;5.77;;;2.40;;
21301;SDS011;10810;48.270;9.996;2023-02-28T05:25:58;6.13;;;2.47;;
21301;SDS011;10810;48.270;9.996;2023-02-28T05:28:25;14.00;;;2.50;;
21301;SDS011;10810;48.270;9.996;2023-02-28T05:30:54;13.67;;;2.83;;
21301;SDS011;10810;48.270;9.996;2023-02-28T05:33:21;4.37;;;2.23;;
21301;SDS011;10810;48.270;9.996;2023-02-28T05:35:48;7.60;;;2.73;;
21301;SDS011;10810;48.270;9.996;2023-02-28T05:38:15;7.73;;;3.17;;
21301;SDS011;10810;48.270;9.996;2023-02-28T05:40:44;7.20;;;2.10;;
21301;SDS011;10810;48.270;9.996;2023-02-28T05:43:17;5.70;;;2.73;;
21301;SDS011;10810;48.270;9.996;2023-02-28T05:45:45;7.20;;;2.57;;
21301;SDS011;10810;48.270;9.996;2023-02-28T05:48:17;8.17;;;3.33;;
21301;SDS011;10810;48.270;9.996;2023-02-28T05:50:44;4.60;;;2.47;;
21301;SDS011;10810;48.270;9.996;2023-02-28T05:53:12;6.53;;;3.10;;
21301;SDS011;10810;48.270;9.996;2023-02-28T05:55:39;8.77;;;3.07;;
21301;SDS011;10810;48.270;9.996;2023-02-28T05:58:06;3.80;;;2.40;;
21301;SDS011;10810;48.270;9.996;2023-02-28T06:00:34;7.00;;;2.63;;
21301;SDS011;10810;48.270;9.996;2023-02-28T06:03:15;7.17;;;2.90;;
21301;SDS011;10810;48.270;9.996;2023-02-28T06:05:42;5.53;;;2.47;;
21301;SDS011;10810;48.270;9.996;2023-02-28T06:08:14;8.97;;;2.70;;
21301;SDS011;10810;48.270;9.996;2023-02-28T06:10:41;9.17;;;2.30;;
21301;SDS011;10810;48.270;9.996;2023-02-28T06:13:08;6.53;;;2.53;;
21301;SDS011;10810;48.270;9.996;2023-02-28T06:15:38;6.50;;;2.50;;
21301;SDS011;10810;48.270;9.996;2023-02-28T06:18:05;7.73;;;3.00;;
21301;SDS011;10810;48.270;9.996;2023-02-28T06:20:32;8.30;;;2.57;;
21301;SDS011;10810;48.270;9.996;2023-02-28T06:23:01;8.73;;;3.10;;
21301;SDS011;10810;48.270;9.996;2023-02-28T06:25:28;7.37;;;2.80;;
21301;SDS011;10810;48.270;9.996;2023-02-28T06:27:56;10.10;;;2.50;;
21301;SDS011;10810;48.270;9.996;2023-02-28T06:30:26;11.00;;;3.10;;
21301;SDS011;10810;48.270;9.996;2023-02-28T06:32:58;10.00;;;3.93;;
21301;SDS011;10810;48.270;9.996;2023-02-28T06:35:28;10.63;;;3.50;;
21301;SDS011;10810;48.270;9.996;2023-02-28T06:37:55;6.63;;;2.87;;
21301;SDS011;10810;48.270;9.996;2023-02-28T06:40:23;7.23;;;2.90;;
21301;SDS011;10810;48.270;9.996;2023-02-28T06:42:59;7.33;;;2.67;;
21301;SDS011;10810;48.270;9.996;2023-02-28T06:45:26;6.43;;;2.30;;
21301;SDS011;10810;48.270;9.996;2023-02-28T06:47:53;5.77;;;2.53;;
21301;SDS011;10810;48.270;9.996;2023-02-28T06:50:30;10.67;;;3.37;;
21301;SDS011;10810;48.270;9.996;2023-02-28T06:52:57;6.03;;;2.80;;
21301;SDS011;10810;48.270;9.996;2023-02-28T06:55:24;4.93;;;2.63;;
21301;SDS011;10810;48.270;9.996;2023-02-28T06:57:53;8.40;;;3.10;;
21301;SDS011;10810;48.270;9.996;2023-02-28T07:00:23;11.40;;;3.03;;
21301;SDS011;10810;48.270;9.996;2023-02-28T07:02:53;5.63;;;2.67;;
21301;SDS011;10810;48.270;9.996;2023-02-28T07:05:20;8.13;;;3.13;;
21301;SDS011;10810;48.270;9.996;2023-02-28T07:07:49;6.60;;;2.43;;
21301;SDS011;10810;48.270;9.996;2023-02-28T07:10:17;10.43;;;3.30;;
21301;SDS011;10810;48.270;9.996;2023-02-28T07:12:45;8.67;;;3.13;;
21301;SDS011;10810;48.270;9.996;2023-02-28T07:15:12;7.03;;;3.30;;
21301;SDS011;10810;48.270;9.996;2023-02-28T07:17:39;7.00;;;3.43;;
21301;SDS011;10810;48.270;9.996;2023-02-28T07:20:07;6.17;;;2.80;;
21301;SDS011;10810;48.270;9.996;2023-02-28T07:22:35;5.77;;;2.77;;
21301;SDS011;10810;48.270;9.996;2023-02-28T07:25:04;9.03;;;3.73;;
21301;SDS011;10810;48.270;9.996;2023-02-28T07:27:31;8.07;;;3.90;;
21301;SDS011;10810;48.270;9.996;2023-02-28T07:29:59;9.07;;;2.97;;
21301;SDS011;10810;48.270;9.996;2023-02-28T07:32:28;8.03;;;3.60;;
21301;SDS011;10810;48.270;9.996;2023-02-28T07:34:55;12.87;;;4.03;;
21301;SDS011;10810;48.270;9.996;2023-02-28T07:37:22;6.57;;;3.53;;
21301;SDS011;10810;48.270;9.996;2023-02-28T07:39:49;10.27;;;3.47;;
21301;SDS011;10810;48.270;9.996;2023-02-28T07:42:17;9.47;;;4.10;;
21301;SDS011;10810;48.270;9.996;2023-02-28T07:44:46;15.07;;;4.53;;
21301;SDS011;10810;48.270;9.996;2023-02-28T07:47:13;8.37;;;3.73;;
21301;SDS011;10810;48.270;9.996;2023-02-28T07:49:39;8.30;;;4.37;;
21301;SDS011;10810;48.270;9.996;2023-02-28T07:52:07;11.13;;;4.30;;
21301;SDS011;10810;48.270;9.996;2023-02-28T07:54:34;13.13;;;3.93;;
21301;SDS011;10810;48.270;9.996;2023-02-28T07:57:01;14.03;;;4.63;;
21301;SDS011;10810;48.270;9.996;2023-02-28T07:59:29;9.83;;;4.30;;
21301;SDS011;10810;48.270;9.996;2023-02-28T08:01:58;11.30;;;4.03;;
21301;SDS011;10810;48.270;9.996;2023-02-28T08:04:26;14.20;;;4.57;;
21301;SDS011;10810;48.270;9.996;2023-02-28T08:06:54;10.13;;;3.50;;
21301;SDS011;10810;48.270;9.996;2023-02-28T08:09:23;8.93;;;3.40;;
21301;SDS011;10810;48.270;9.996;2023-02-28T08:12:13;8.97;;;3.60;;
21301;SDS011;10810;48.270;9.996;2023-02-28T08:17:38;10.33;;;3.77;;
21301;SDS011;10810;48.270;9.996;2023-02-28T08:20:06;9.73;;;3.57;;
21301;SDS011;10810;48.270;9.996;2023-02-28T08:22:35;8.40;;;3.80;;
21301;SDS011;10810;48.270;9.996;2023-02-28T08:25:20;7.67;;;4.07;;
21301;SDS011;10810;48.270;9.996;2023-02-28T08:28:04;9.13;;;3.57;;
21301;SDS011;10810;48.270;9.996;2023-02-28T08:31:07;9.87;;;3.53;;
21301;SDS011;10810;48.270;9.996;2023-02-28T08:33:44;8.13;;;3.27;;
21301;SDS011;10810;48.270;9.996;2023-02-28T08:36:34;9.53;;;3.53;;
21301;SDS011;10810;48.270;9.996;2023-02-28T08:39:10;9.93;;;4.50;;
21301;SDS011;10810;48.270;9.996;2023-02-28T08:41:44;9.93;;;3.83;;
21301;SDS011;10810;48.270;9.996;2023-02-28T08:44:12;9.83;;;3.80;;
21301;SDS011;10810;48.270;9.996;2023-02-28T08:46:39;9.43;;;3.77;;
21301;SDS011;10810;48.270;9.996;2023-02-28T08:49:10;12.07;;;4.60;;
21301;SDS011;10810;48.270;9.996;2023-02-28T08:51:40;9.33;;;4.17;;
21301;SDS011;10810;48.270;9.996;2023-02-28T08:54:07;9.10;;;3.67;;
21301;SDS011;10810;48.270;9.996;2023-02-28T08:56:37;9.23;;;3.90;;
21301;SDS011;10810;48.270;9.996;2023-02-28T08:59:05;12.23;;;4.47;;
21301;SDS011;10810;48.270;9.996;2023-02-28T09:01:32;12.07;;;4.60;;
21301;SDS011;10810;48.270;9.996;2023-02-28T09:03:59;12.33;;;4.40;;
21301;SDS011;10810;48.270;9.996;2023-02-28T09:06:28;7.50;;;3.47;;
21301;SDS011;10810;48.270;9.996;2023-02-28T09:08:56;9.23;;;3.83;;
21301;SDS011;10810;48.270;9.996;2023-02-28T09:11:26;11.13;;;4.10;;
21301;SDS011;10810;48.270;9.996;2023-02-28T09:13:53;14.20;;;5.33;;
21301;SDS011;10810;48.270;9.996;2023-02-28T09:16:21;12.63;;;4.70;;
21301;SDS011;10810;48.270;9.996;2023-02-28T09:18:48;11.37;;;4.17;;
21301;SDS011;10810;48.270;9.996;2023-02-28T09:21:16;12.33;;;4.67;;
21301;SDS011;10810;48.270;9.996;2023-02-28T09:23:46;13.10;;;4.27;;
21301;SDS011;10810;48.270;9.996;2023-02-28T09:26:14;12.40;;;4.67;;
21301;SDS011;10810;48.270;9.996;2023-02-28T09:28:45;12.93;;;4.37;;
21301;SDS011;10810;48.270;9.996;2023-02-28T09:31:13;10.23;;;4.07;;
21301;SDS011;10810;48.270;9.996;2023-02-28T09:33:41;8.87;;;3.77;;
21301;SDS011;10810;48.270;9.996;2023-02-28T09:36:08;13.60;;;5.37;;
21301;SDS011;10810;48.270;9.996;2023-02-28T09:38:35;10.27;;;4.30;;
21301;SDS011;10810;48.270;9.996;2023-02-28T09:41:08;8.20;;;4.40;;
21301;SDS011;10810;48.270;9.996;2023-02-28T09:43:39;12.57;;;4.90;;
21301;SDS011;10810;48.270;9.996;2023-02-28T09:46:13;11.63;;;4.53;;
21301;SDS011;10810;48.270;9.996;2023-02-28T09:48:47;11.23;;;4.47;;
21301;SDS011;10810;48.270;9.996;2023-02-28T09:51:23;9.03;;;4.17;;
21301;SDS011;10810;48.270;9.996;2023-02-28T09:53:59;9.80;;;4.07;;
21301;SDS011;10810;48.270;9.996;2023-02-28T09:56:36;12.37;;;3.93;;
21301;SDS011;10810;48.270;9.996;2023-02-28T09:59:11;12.70;;;4.27;;
21301;SDS011;10810;48.270;9.996;2023-02-28T10:01:48;14.63;;;3.87;;
21301;SDS011;10810;48.270;9.996;2023-02-28T10:04:33;14.83;;;4.37;;
21301;SDS011;10810;48.270;9.996;2023-02-28T10:07:11;13.37;;;5.03;;
21301;SDS011;10810;48.270;9.996;2023-02-28T10:09:49;11.70;;;5.23;;
21301;SDS011;10810;48.270;9.996;2023-02-28T10:12:22;22.07;;;4.93;;
21301;SDS011;10810;48.270;9.996;2023-02-28T10:14:57;9.43;;;3.57;;
21301;SDS011;10810;48.270;9.996;2023-02-28T10:17:29;12.47;;;4.67;;
21301;SDS011;10810;48.270;9.996;2023-02-28T10:20:21;7.67;;;3.40;;
21301;SDS011;10810;48.270;9.996;2023-02-28T10:22:57;11.37;;;4.33;;
21301;SDS011;10810;48.270;9.996;2023-02-28T10:25:43;9.53;;;4.30;;
21301;SDS011;10810;48.270;9.996;2023-02-28T10:28:17;14.07;;;5.10;;
21301;SDS011;10810;48.270;9.996;2023-02-28T10:30:46;11.20;;;5.07;;
21301;SDS011;10810;48.270;9.996;2023-02-28T10:33:19;11.30;;;4.87;;
21301;SDS011;10810;48.270;9.996;2023-02-28T10:35:50;17.13;;;4.67;;
21301;SDS011;10810;48.270;9.996;2023-02-28T10:38:19;12.47;;;3.83;;
21301;SDS011;10810;48.270;9.996;2023-02-28T10:40:48;16.43;;;4.87;;
21301;SDS011;10810;48.270;9.996;2023-02-28T10:43:20;13.60;;;4.73;;
21301;SDS011;10810;48.270;9.996;2023-02-28T10:45:53;13.63;;;5.37;;
21301;SDS011;10810;48.270;9.996;2023-02-28T10:48:33;13.43;;;5.13;;
21301;SDS011;10810;48.270;9.996;2023-02-28T10:51:02;13.77;;;5.13;;
21301;SDS011;10810;48.270;9.996;2023-02-28T10:53:38;11.37;;;4.40;;
21301;SDS011;10810;48.270;9.996;2023-02-28T10:56:14;14.73;;;5.23;;
21301;SDS011;10810;48.270;9.996;2023-02-28T10:58:59;10.87;;;4.63;;
21301;SDS011;10810;48.270;9.996;2023-02-28T11:01:35;12.13;;;4.97;;
21301;SDS011;10810;48.270;9.996;2023-02-28T11:04:16;12.47;;;4.70;;
21301;SDS011;10810;48.270;9.996;2023-02-28T11:06:44;13.93;;;5.63;;
21301;SDS011;10810;48.270;9.996;2023-02-28T11:09:18;11.17;;;4.90;;
21301;SDS011;10810;48.270;9.996;2023-02-28T11:11:50;11.87;;;4.53;;
21301;SDS011;10810;48.270;9.996;2023-02-28T11:14:20;18.97;;;5.30;;
21301;SDS011;10810;48.270;9.996;2023-02-28T11:17:13;16.67;;;5.50;;
21301;SDS011;10810;48.270;9.996;2023-02-28T11:19:46;14.67;;;4.97;;
21301;SDS011;10810;48.270;9.996;2023-02-28T11:22:17;19.87;;;6.40;;
21301;SDS011;10810;48.270;9.996;2023-02-28T11:24:47;11.33;;;4.67;;
21301;SDS011;10810;48.270;9.996;2023-02-28T11:27:42;11.93;;;5.57;;
21301;SDS011;10810;48.270;9.996;2023-02-28T11:33:23;13.67;;;5.07;;
21301;SDS011;10810;48.270;9.996;2023-02-28T11:35:53;14.60;;;5.53;;
21301;SDS011;10810;48.270;9.996;2023-02-28T11:38:25;18.93;;;5.57;;
21301;SDS011;10810;48.270;9.996;2023-02-28T11:40:58;13.33;;;4.80;;
21301;SDS011;10810;48.270;9.996;2023-02-28T11:43:52;13.67;;;5.70;;
21301;SDS011;10810;48.270;9.996;2023-02-28T11:53:02;12.10;;;4.63;;
21301;SDS011;10810;48.270;9.996;2023-02-28T11:55:58;23.90;;;5.33;;
21301;SDS011;10810;48.270;9.996;2023-02-28T11:58:46;13.07;;;5.80;;
21301;SDS011;10810;48.270;9.996;2023-02-28T12:01:41;13.60;;;4.73;;
21301;SDS011;10810;48.270;9.996;2023-02-28T12:04:29;13.23;;;5.77;;
21301;SDS011;10810;48.270;9.996;2023-02-28T12:07:08;17.53;;;4.80;;
21301;SDS011;10810;48.270;9.996;2023-02-28T12:09:44;16.10;;;5.10;;
21301;SDS011;10810;48.270;9.996;2023-02-28T12:16:05;12.33;;;5.50;;
21301;SDS011;10810;48.270;9.996;2023-02-28T12:19:03;13.33;;;4.60;;
21301;SDS011;10810;48.270;9.996;2023-02-28T12:25:33;21.77;;;6.10;;
21301;SDS011;10810;48.270;9.996;2023-02-28T12:28:21;15.30;;;5.53;;
21301;SDS011;10810;48.270;9.996;2023-02-28T12:31:23;15.13;;;5.70;;
21301;SDS011;10810;48.270;9.996;2023-02-28T13:02:09;12.00;;;5.10;;
21301;SDS011;10810;48.270;9.996;2023-02-28T13:04:45;13.97;;;5.40;;
21301;SDS011;10810;48.270;9.996;2023-02-28T13:10:15;17.30;;;4.93;;
21301;SDS011;10810;48.270;9.996;2023-02-28T13:12:47;18.57;;;6.17;;
21301;SDS011;10810;48.270;9.996;2023-02-28T13:15:17;12.37;;;4.73;;
21301;SDS011;10810;48.270;9.996;2023-02-28T13:17:49;15.27;;;5.17;;
21301;SDS011;10810;48.270;9.996;2023-02-28T13:20:20;13.17;;;5.00;;
21301;SDS011;10810;48.270;9.996;2023-02-28T13:22:49;14.07;;;5.30;;
21301;SDS011;10810;48.270;9.996;2023-02-28T13:34:34;13.63;;;5.53;;
21301;SDS011;10810;48.270;9.996;2023-02-28T13:40:22;12.13;;;5.33;;
21301;SDS011;10810;48.270;9.996;2023-02-28T13:42:55;14.63;;;4.83;;
21301;SDS011;10810;48.270;9.996;2023-02-28T13:45:25;17.07;;;5.27;;
21301;SDS011;10810;48.270;9.996;2023-02-28T13:48:03;14.73;;;5.17;;
21301;SDS011;10810;48.270;9.996;2023-02-28T13:50:47;16.30;;;4.73;;
21301;SDS011;10810;48.270;9.996;2023-02-28T13:53:47;12.60;;;4.87;;
21301;SDS011;10810;48.270;9.996;2023-02-28T13:56:27;14.53;;;5.87;;
21301;SDS011;10810;48.270;9.996;2023-02-28T13:59:02;10.67;;;4.30;;
21301;SDS011;10810;48.270;9.996;2023-02-28T14:01:46;14.87;;;5.07;;
21301;SDS011;10810;48.270;9.996;2023-02-28T14:14:54;14.53;;;4.73;;
21301;SDS011;10810;48.270;9.996;2023-02-28T14:24:32;12.20;;;4.83;;
21301;SDS011;10810;48.270;9.996;2023-02-28T14:27:48;13.43;;;5.10;;
21301;SDS011;10810;48.270;9.996;2023-02-28T14:31:10;12.50;;;5.17;;
21301;SDS011;10810;48.270;9.996;2023-02-28T14:37:41;10.93;;;4.33;;
21301;SDS011;10810;48.270;9.996;2023-02-28T14:40:34;12.77;;;4.83;;
21301;SDS011;10810;48.270;9.996;2023-02-28T14:50:05;13.30;;;5.10;;
21301;SDS011;10810;48.270;9.996;2023-02-28T14:53:28;13.53;;;5.13;;
21301;SDS011;10810;48.270;9.996;2023-02-28T14:56:38;15.17;;;5.00;;
21301;SDS011;10810;48.270;9.996;2023-02-28T14:59:44;11.20;;;4.73;;
21301;SDS011;10810;48.270;9.996;2023-02-28T15:02:19;11.40;;;4.90;;
21301;SDS011;10810;48.270;9.996;2023-02-28T15:05:00;18.87;;;5.80;;
21301;SDS011;10810;48.270;9.996;2023-02-28T15:08:32;13.97;;;5.23;;
21301;SDS011;10810;48.270;9.996;2023-02-28T15:13:06;15.70;;;4.80;;
21301;SDS011;10810;48.270;9.996;2023-02-28T15:14:45;13.83;;;5.30;;
21301;SDS011;10810;48.270;9.996;2023-02-28T15:17:15;16.17;;;5.23;;
21301;SDS011;10810;48.270;9.996;2023-02-28T15:19:48;12.10;;;5.13;;
21301;SDS011;10810;48.270;9.996;2023-02-28T15:22:26;14.43;;;5.13;;
21301;SDS011;10810;48.270;9.996;2023-02-28T15:24:59;13.37;;;4.97;;
21301;SDS011;10810;48.270;9.996;2023-02-28T15:27:35;11.67;;;4.90;;
21301;SDS011;10810;48.270;9.996;2023-02-28T15:30:15;12.57;;;4.90;;
21301;SDS011;10810;48.270;9.996;2023-02-28T15:32:44;11.40;;;4.67;;
21301;SDS011;10810;48.270;9.996;2023-02-28T15:35:28;14.10;;;4.93;;
21301;SDS011;10810;48.270;9.996;2023-02-28T15:37:57;14.87;;;4.63;;
21301;SDS011;10810;48.270;9.996;2023-02-28T15:40:27;13.70;;;4.77;;
21301;SDS011;10810;48.270;9.996;2023-02-28T15:43:00;11.93;;;4.97;;
21301;SDS011;10810;48.270;9.996;2023-02-28T15:45:39;11.73;;;4.70;;
21301;SDS011;10810;48.270;9.996;2023-02-28T15:48:13;13.97;;;4.47;;
21301;SDS011;10810;48.270;9.996;2023-02-28T15:50:46;15.57;;;5.27;;
21301;SDS011;10810;48.270;9.996;2023-02-28T15:53:16;9.83;;;4.33;;
21301;SDS011;10810;48.270;9.996;2023-02-28T15:55:45;15.77;;;5.23;;
21301;SDS011;10810;48.270;9.996;2023-02-28T15:58:42;10.80;;;4.83;;
21301;SDS011;10810;48.270;9.996;2023-02-28T16:01:21;14.40;;;5.23;;
21301;SDS011;10810;48.270;9.996;2023-02-28T16:03:51;14.40;;;5.43;;
21301;SDS011;10810;48.270;9.996;2023-02-28T16:09:05;11.93;;;4.50;;
21301;SDS011;10810;48.270;9.996;2023-02-28T16:11:37;15.10;;;5.50;;
21301;SDS011;10810;48.270;9.996;2023-02-28T16:14:08;22.10;;;6.30;;
21301;SDS011;10810;48.270;9.996;2023-02-28T16:16:45;14.47;;;5.47;;
21301;SDS011;10810;48.270;9.996;2023-02-28T16:19:15;14.67;;;5.03;;
21301;SDS011;10810;48.270;9.996;2023-02-28T16:21:42;16.13;;;5.20;;
21301;SDS011;10810;48.270;9.996;2023-02-28T16:24:09;12.37;;;4.93;;
21301;SDS011;10810;48.270;9.996;2023-02-28T16:26:36;15.30;;;5.10;;
21301;SDS011;10810;48.270;9.996;2023-02-28T16:29:06;16.90;;;5.23;;
21301;SDS011;10810;48.270;9.996;2023-02-28T16:31:35;15.13;;;5.37;;
21301;SDS011;10810;48.270;9.996;2023-02-28T16:34:05;13.10;;;4.70;;
21301;SDS011;10810;48.270;9.996;2023-02-28T16:36:32;10.63;;;4.17;;
21301;SDS011;10810;48.270;9.996;2023-02-28T16:38:59;14.27;;;5.57;;
21301;SDS011;10810;48.270;9.996;2023-02-28T16:41:27;15.43;;;5.20;;
21301;SDS011;10810;48.270;9.996;2023-02-28T16:43:55;16.27;;;4.63;;
21301;SDS011;10810;48.270;9.996;2023-02-28T16:46:25;16.83;;;4.80;;
21301;SDS011;10810;48.270;9.996;2023-02-28T16:48:57;13.13;;;5.17;;
21301;SDS011;10810;48.270;9.996;2023-02-28T16:51:26;11.70;;;4.57;;
21301;SDS011;10810;48.270;9.996;2023-02-28T16:53:53;13.17;;;4.83;;
21301;SDS011;10810;48.270;9.996;2023-02-28T16:56:22;13.33;;;4.73;;
21301;SDS011;10810;48.270;9.996;2023-02-28T16:58:51;16.17;;;5.40;;
21301;SDS011;10810;48.270;9.996;2023-02-28T17:01:21;13.50;;;4.93;;
21301;SDS011;10810;48.270;9.996;2023-02-28T17:03:50;13.80;;;4.67;;
21301;SDS011;10810;48.270;9.996;2023-02-28T17:06:19;13.87;;;4.50;;